Huvudsida
METAR-TAF:

METAR-TAF

Flygplatser :

Hans Christian Andersens flygplats

Odense, Danmark

latitud: 55-29N, longitud: 010-20E, höjd: 17 m

Aktuellt väderrapport

Denna rapport gjordes för 24 minuter sedan, klockan 06:50 UTC
Vind 10 kt från syd
Temperatur 14°C
Fuktighet 100%
Tryck 1018 hPa
Sikt 10 km eller mer
Få moln på en höjd av 1600 ft
Brutna moln på en höjd av 2000 ft
Mulet på en höjd av 25000 ft
lätt duggregn

METAR: EKOD 200650Z 18010KT 9999 -DZ FEW016 BKN020 OVC250 14/14 Q1018

Tid: 09:14 (07:14 UTC)

Väderprognos

Denna rapport gjordes för 18 timmar och 44 minuter sedan, klockan 12:30 UTC
Prognos gäller från 19 kl. 12 UTC till 19 kl. 18 UTC
Vind 15 kt från väst/sydväst
Sikt 10 km eller mer
Spridda moln på en höjd av 2500 ft
Temporärt
från 19 kl. 12 UTC till 19 kl. 16 UTC
Vind 15 kt från väst i byarna ända upp till 25 kt

TAF: EKOD 191230Z 1912/1918 25015KT 9999 SCT025 TEMPO 1912/1916 27015G25KT

Aktuella väderrapporter och prognoser från 4000 flygplatser (METAR- och TAF-rapporter).

De tillgängliga stationerna syns som gula och röda prickar på kartan.

För musen över prickarna för att se namnen på stationerna.

Klicka sedan för att få väderrapporter och prognoser.

För att ändra kartan: Klicka på de gröna knapparna med ett svart kors på för att zooma in; den gröna knappen med ett streck på för att zooma ut; eller på de gröna pilarna för angränsande kartor.


METAR-TAF: